sensor_id;sensor_type;location;lat;lon;timestamp;temperature;humidity
18160;DHT22;9205;52.032;4.314;2022-11-18T00:01:07;9.90;99.90
18160;DHT22;9205;52.032;4.314;2022-11-18T00:03:36;10.00;99.90
18160;DHT22;9205;52.032;4.314;2022-11-18T00:06:04;10.20;99.90
18160;DHT22;9205;52.032;4.314;2022-11-18T00:08:33;10.00;99.90
18160;DHT22;9205;52.032;4.314;2022-11-18T00:11:07;9.90;99.90
18160;DHT22;9205;52.032;4.314;2022-11-18T00:13:38;10.10;99.90
18160;DHT22;9205;52.032;4.314;2022-11-18T00:16:23;10.00;99.90
18160;DHT22;9205;52.032;4.314;2022-11-18T00:18:51;10.00;99.90
18160;DHT22;9205;52.032;4.314;2022-11-18T00:21:18;10.00;99.90
18160;DHT22;9205;52.032;4.314;2022-11-18T00:23:47;9.80;99.90
18160;DHT22;9205;52.032;4.314;2022-11-18T00:26:16;9.90;99.90
18160;DHT22;9205;52.032;4.314;2022-11-18T00:28:43;10.00;99.90
18160;DHT22;9205;52.032;4.314;2022-11-18T00:31:12;10.00;99.90
18160;DHT22;9205;52.032;4.314;2022-11-18T00:33:40;10.10;99.90
18160;DHT22;9205;52.032;4.314;2022-11-18T00:36:10;10.00;99.90
18160;DHT22;9205;52.032;4.314;2022-11-18T00:38:39;10.10;99.90
18160;DHT22;9205;52.032;4.314;2022-11-18T00:41:08;10.00;99.90
18160;DHT22;9205;52.032;4.314;2022-11-18T00:43:38;10.10;99.90
18160;DHT22;9205;52.032;4.314;2022-11-18T00:46:06;9.70;99.90
18160;DHT22;9205;52.032;4.314;2022-11-18T00:48:35;10.10;99.90
18160;DHT22;9205;52.032;4.314;2022-11-18T00:51:07;10.00;99.90
18160;DHT22;9205;52.032;4.314;2022-11-18T00:53:36;9.90;99.90
18160;DHT22;9205;52.032;4.314;2022-11-18T00:56:04;10.10;99.90
18160;DHT22;9205;52.032;4.314;2022-11-18T00:58:32;10.10;99.90
18160;DHT22;9205;52.032;4.314;2022-11-18T01:01:01;9.80;99.90
18160;DHT22;9205;52.032;4.314;2022-11-18T01:03:29;9.80;99.90
18160;DHT22;9205;52.032;4.314;2022-11-18T01:05:57;10.00;99.90
18160;DHT22;9205;52.032;4.314;2022-11-18T01:08:24;9.90;99.90
18160;DHT22;9205;52.032;4.314;2022-11-18T01:10:52;10.00;99.90
18160;DHT22;9205;52.032;4.314;2022-11-18T01:13:20;9.90;99.90
18160;DHT22;9205;52.032;4.314;2022-11-18T01:15:50;10.00;99.90
18160;DHT22;9205;52.032;4.314;2022-11-18T01:18:23;9.90;99.90
18160;DHT22;9205;52.032;4.314;2022-11-18T01:20:52;9.80;99.90
18160;DHT22;9205;52.032;4.314;2022-11-18T01:23:20;9.70;99.90
18160;DHT22;9205;52.032;4.314;2022-11-18T01:25:48;9.70;99.90
18160;DHT22;9205;52.032;4.314;2022-11-18T01:28:16;9.80;99.90
18160;DHT22;9205;52.032;4.314;2022-11-18T01:30:45;9.90;99.90
18160;DHT22;9205;52.032;4.314;2022-11-18T01:33:12;9.90;99.90
18160;DHT22;9205;52.032;4.314;2022-11-18T01:35:43;9.80;99.90
18160;DHT22;9205;52.032;4.314;2022-11-18T01:38:12;9.80;99.90
18160;DHT22;9205;52.032;4.314;2022-11-18T01:40:40;9.80;99.90
18160;DHT22;9205;52.032;4.314;2022-11-18T01:43:10;9.70;99.90
18160;DHT22;9205;52.032;4.314;2022-11-18T01:45:41;9.80;99.90
18160;DHT22;9205;52.032;4.314;2022-11-18T01:48:14;10.00;99.90
18160;DHT22;9205;52.032;4.314;2022-11-18T01:50:49;9.70;99.90
18160;DHT22;9205;52.032;4.314;2022-11-18T01:53:26;9.70;99.90
18160;DHT22;9205;52.032;4.314;2022-11-18T01:56:04;9.70;99.90
18160;DHT22;9205;52.032;4.314;2022-11-18T01:58:40;9.90;99.90
18160;DHT22;9205;52.032;4.314;2022-11-18T02:01:10;9.80;99.90
18160;DHT22;9205;52.032;4.314;2022-11-18T02:03:39;9.90;99.90
18160;DHT22;9205;52.032;4.314;2022-11-18T02:06:10;9.80;99.90
18160;DHT22;9205;52.032;4.314;2022-11-18T02:08:39;9.70;99.90
18160;DHT22;9205;52.032;4.314;2022-11-18T02:11:09;9.70;99.90
18160;DHT22;9205;52.032;4.314;2022-11-18T02:14:00;9.90;99.90
18160;DHT22;9205;52.032;4.314;2022-11-18T02:16:43;9.60;99.90
18160;DHT22;9205;52.032;4.314;2022-11-18T02:19:40;9.70;99.90
18160;DHT22;9205;52.032;4.314;2022-11-18T02:22:48;9.90;99.90
18160;DHT22;9205;52.032;4.314;2022-11-18T02:25:49;9.60;99.90
18160;DHT22;9205;52.032;4.314;2022-11-18T02:28:36;9.80;99.90
18160;DHT22;9205;52.032;4.314;2022-11-18T02:31:19;9.80;99.90
18160;DHT22;9205;52.032;4.314;2022-11-18T02:33:55;9.70;99.90
18160;DHT22;9205;52.032;4.314;2022-11-18T02:36:30;9.50;99.90
18160;DHT22;9205;52.032;4.314;2022-11-18T02:39:06;9.50;99.90
18160;DHT22;9205;52.032;4.314;2022-11-18T02:41:40;9.70;99.90
18160;DHT22;9205;52.032;4.314;2022-11-18T02:44:13;9.80;99.90
18160;DHT22;9205;52.032;4.314;2022-11-18T02:46:48;9.50;99.90
18160;DHT22;9205;52.032;4.314;2022-11-18T02:49:23;9.80;99.90
18160;DHT22;9205;52.032;4.314;2022-11-18T02:51:57;9.70;99.90
18160;DHT22;9205;52.032;4.314;2022-11-18T02:54:28;9.70;99.90
18160;DHT22;9205;52.032;4.314;2022-11-18T02:56:56;9.90;99.90
18160;DHT22;9205;52.032;4.314;2022-11-18T02:59:26;9.60;99.90
18160;DHT22;9205;52.032;4.314;2022-11-18T03:01:54;9.60;99.90
18160;DHT22;9205;52.032;4.314;2022-11-18T03:04:22;9.80;99.90
18160;DHT22;9205;52.032;4.314;2022-11-18T03:06:59;9.70;99.90
18160;DHT22;9205;52.032;4.314;2022-11-18T03:09:32;10.10;99.90
18160;DHT22;9205;52.032;4.314;2022-11-18T03:12:10;10.10;99.90
18160;DHT22;9205;52.032;4.314;2022-11-18T03:14:53;10.10;99.90
18160;DHT22;9205;52.032;4.314;2022-11-18T03:17:33;10.00;99.90
18160;DHT22;9205;52.032;4.314;2022-11-18T03:20:18;9.80;99.90
18160;DHT22;9205;52.032;4.314;2022-11-18T03:22:54;9.90;99.90
18160;DHT22;9205;52.032;4.314;2022-11-18T03:25:31;10.30;99.90
18160;DHT22;9205;52.032;4.314;2022-11-18T03:28:17;10.30;99.90
18160;DHT22;9205;52.032;4.314;2022-11-18T03:30:55;10.00;99.90
18160;DHT22;9205;52.032;4.314;2022-11-18T03:33:31;10.10;99.90
18160;DHT22;9205;52.032;4.314;2022-11-18T03:36:04;10.10;99.90
18160;DHT22;9205;52.032;4.314;2022-11-18T03:38:37;10.00;99.90
18160;DHT22;9205;52.032;4.314;2022-11-18T03:41:10;10.10;99.90
18160;DHT22;9205;52.032;4.314;2022-11-18T03:43:45;10.00;99.90
18160;DHT22;9205;52.032;4.314;2022-11-18T03:46:19;10.00;99.90
18160;DHT22;9205;52.032;4.314;2022-11-18T03:48:51;10.00;99.90
18160;DHT22;9205;52.032;4.314;2022-11-18T03:51:22;10.00;99.90
18160;DHT22;9205;52.032;4.314;2022-11-18T03:53:57;10.20;99.90
18160;DHT22;9205;52.032;4.314;2022-11-18T03:56:33;9.90;99.90
18160;DHT22;9205;52.032;4.314;2022-11-18T03:59:06;10.00;99.90
18160;DHT22;9205;52.032;4.314;2022-11-18T04:01:44;10.20;99.90
18160;DHT22;9205;52.032;4.314;2022-11-18T04:04:17;10.00;99.90
18160;DHT22;9205;52.032;4.314;2022-11-18T04:06:47;10.10;99.90
18160;DHT22;9205;52.032;4.314;2022-11-18T04:09:19;10.10;99.90
18160;DHT22;9205;52.032;4.314;2022-11-18T04:11:53;10.10;99.90
18160;DHT22;9205;52.032;4.314;2022-11-18T04:14:29;10.20;99.90
18160;DHT22;9205;52.032;4.314;2022-11-18T04:17:04;10.00;99.90
18160;DHT22;9205;52.032;4.314;2022-11-18T04:19:34;10.20;99.90
18160;DHT22;9205;52.032;4.314;2022-11-18T04:22:01;10.00;99.90
18160;DHT22;9205;52.032;4.314;2022-11-18T04:24:28;9.90;99.90
18160;DHT22;9205;52.032;4.314;2022-11-18T04:26:56;9.90;99.90
18160;DHT22;9205;52.032;4.314;2022-11-18T04:29:23;9.90;99.90
18160;DHT22;9205;52.032;4.314;2022-11-18T04:31:51;10.00;99.90
18160;DHT22;9205;52.032;4.314;2022-11-18T04:34:19;9.90;99.90
18160;DHT22;9205;52.032;4.314;2022-11-18T04:36:46;10.20;99.90
18160;DHT22;9205;52.032;4.314;2022-11-18T04:39:14;10.10;99.90
18160;DHT22;9205;52.032;4.314;2022-11-18T04:41:42;10.10;99.90
18160;DHT22;9205;52.032;4.314;2022-11-18T04:44:22;10.00;99.90
18160;DHT22;9205;52.032;4.314;2022-11-18T04:46:51;9.80;99.90
18160;DHT22;9205;52.032;4.314;2022-11-18T04:49:20;10.00;99.90
18160;DHT22;9205;52.032;4.314;2022-11-18T04:51:48;9.80;99.90
18160;DHT22;9205;52.032;4.314;2022-11-18T04:54:16;10.00;99.90
18160;DHT22;9205;52.032;4.314;2022-11-18T04:56:45;9.70;99.90
18160;DHT22;9205;52.032;4.314;2022-11-18T04:59:13;10.00;99.90
18160;DHT22;9205;52.032;4.314;2022-11-18T05:01:42;10.00;99.90
18160;DHT22;9205;52.032;4.314;2022-11-18T05:04:12;9.70;99.90
18160;DHT22;9205;52.032;4.314;2022-11-18T05:06:42;9.80;99.90
18160;DHT22;9205;52.032;4.314;2022-11-18T05:09:10;10.00;99.90
18160;DHT22;9205;52.032;4.314;2022-11-18T05:11:37;9.60;99.90
18160;DHT22;9205;52.032;4.314;2022-11-18T05:14:24;9.70;99.90
18160;DHT22;9205;52.032;4.314;2022-11-18T05:16:52;9.90;99.90
18160;DHT22;9205;52.032;4.314;2022-11-18T05:19:20;9.70;99.90
18160;DHT22;9205;52.032;4.314;2022-11-18T05:21:48;9.70;99.90
18160;DHT22;9205;52.032;4.314;2022-11-18T05:24:16;9.90;99.90
18160;DHT22;9205;52.032;4.314;2022-11-18T05:26:58;9.80;99.90
18160;DHT22;9205;52.032;4.314;2022-11-18T05:29:26;9.80;99.90
18160;DHT22;9205;52.032;4.314;2022-11-18T05:31:53;9.80;99.90
18160;DHT22;9205;52.032;4.314;2022-11-18T05:34:21;9.80;99.90
18160;DHT22;9205;52.032;4.314;2022-11-18T05:36:50;9.60;99.90
18160;DHT22;9205;52.032;4.314;2022-11-18T05:39:17;9.80;99.90
18160;DHT22;9205;52.032;4.314;2022-11-18T05:41:44;9.60;99.90
18160;DHT22;9205;52.032;4.314;2022-11-18T05:44:29;9.80;99.90
18160;DHT22;9205;52.032;4.314;2022-11-18T05:46:57;9.90;99.90
18160;DHT22;9205;52.032;4.314;2022-11-18T05:49:24;9.50;99.90
18160;DHT22;9205;52.032;4.314;2022-11-18T05:51:53;9.50;99.90
18160;DHT22;9205;52.032;4.314;2022-11-18T05:54:21;9.50;99.90
18160;DHT22;9205;52.032;4.314;2022-11-18T05:56:48;9.70;99.90
18160;DHT22;9205;52.032;4.314;2022-11-18T05:59:16;9.70;99.90
18160;DHT22;9205;52.032;4.314;2022-11-18T06:01:45;9.80;99.90
18160;DHT22;9205;52.032;4.314;2022-11-18T06:04:18;9.50;99.90
18160;DHT22;9205;52.032;4.314;2022-11-18T06:06:48;9.70;99.90
18160;DHT22;9205;52.032;4.314;2022-11-18T06:09:21;9.70;99.90
18160;DHT22;9205;52.032;4.314;2022-11-18T06:11:55;9.50;99.90
18160;DHT22;9205;52.032;4.314;2022-11-18T06:14:30;9.40;99.90
18160;DHT22;9205;52.032;4.314;2022-11-18T06:17:03;9.50;99.90
18160;DHT22;9205;52.032;4.314;2022-11-18T06:19:34;9.80;99.90
18160;DHT22;9205;52.032;4.314;2022-11-18T06:22:02;9.70;99.90
18160;DHT22;9205;52.032;4.314;2022-11-18T06:24:32;9.40;99.90
18160;DHT22;9205;52.032;4.314;2022-11-18T06:27:00;9.40;99.90
18160;DHT22;9205;52.032;4.314;2022-11-18T06:29:28;9.50;99.90
18160;DHT22;9205;52.032;4.314;2022-11-18T06:31:57;9.70;99.90
18160;DHT22;9205;52.032;4.314;2022-11-18T06:34:24;9.60;99.90
18160;DHT22;9205;52.032;4.314;2022-11-18T06:36:51;9.80;99.90
18160;DHT22;9205;52.032;4.314;2022-11-18T06:39:18;9.50;99.90
18160;DHT22;9205;52.032;4.314;2022-11-18T06:41:47;9.60;99.90
18160;DHT22;9205;52.032;4.314;2022-11-18T06:44:15;9.50;99.90
18160;DHT22;9205;52.032;4.314;2022-11-18T06:46:41;9.70;99.90
18160;DHT22;9205;52.032;4.314;2022-11-18T06:49:25;9.50;99.90
18160;DHT22;9205;52.032;4.314;2022-11-18T06:51:53;9.50;99.90
18160;DHT22;9205;52.032;4.314;2022-11-18T06:54:21;9.70;99.90
18160;DHT22;9205;52.032;4.314;2022-11-18T06:56:50;9.70;99.90
18160;DHT22;9205;52.032;4.314;2022-11-18T06:59:17;9.50;99.90
18160;DHT22;9205;52.032;4.314;2022-11-18T07:01:48;9.80;99.90
18160;DHT22;9205;52.032;4.314;2022-11-18T07:04:17;9.60;99.90
18160;DHT22;9205;52.032;4.314;2022-11-18T07:06:45;9.60;99.90
18160;DHT22;9205;52.032;4.314;2022-11-18T07:09:12;9.90;99.90
18160;DHT22;9205;52.032;4.314;2022-11-18T07:11:40;9.80;99.90
18160;DHT22;9205;52.032;4.314;2022-11-18T07:14:09;9.80;99.90
18160;DHT22;9205;52.032;4.314;2022-11-18T07:16:36;9.80;99.90
18160;DHT22;9205;52.032;4.314;2022-11-18T07:19:08;9.60;99.90
18160;DHT22;9205;52.032;4.314;2022-11-18T07:21:37;9.60;99.90
18160;DHT22;9205;52.032;4.314;2022-11-18T07:24:06;9.80;99.90
18160;DHT22;9205;52.032;4.314;2022-11-18T07:26:34;9.70;99.90
18160;DHT22;9205;52.032;4.314;2022-11-18T07:29:02;9.70;99.90
18160;DHT22;9205;52.032;4.314;2022-11-18T07:31:31;10.00;99.90
18160;DHT22;9205;52.032;4.314;2022-11-18T07:34:00;10.00;99.90
18160;DHT22;9205;52.032;4.314;2022-11-18T07:36:28;10.00;99.90
18160;DHT22;9205;52.032;4.314;2022-11-18T07:38:58;9.70;99.90
18160;DHT22;9205;52.032;4.314;2022-11-18T07:41:27;9.90;99.90
18160;DHT22;9205;52.032;4.314;2022-11-18T07:43:56;9.70;99.90
18160;DHT22;9205;52.032;4.314;2022-11-18T07:46:27;10.00;99.90
18160;DHT22;9205;52.032;4.314;2022-11-18T07:49:00;9.70;99.90
18160;DHT22;9205;52.032;4.314;2022-11-18T07:51:31;10.00;99.90
18160;DHT22;9205;52.032;4.314;2022-11-18T07:54:00;9.70;99.90
18160;DHT22;9205;52.032;4.314;2022-11-18T07:56:27;9.70;99.90
18160;DHT22;9205;52.032;4.314;2022-11-18T07:58:54;9.70;99.90
18160;DHT22;9205;52.032;4.314;2022-11-18T08:01:24;9.70;99.90
18160;DHT22;9205;52.032;4.314;2022-11-18T08:03:53;10.00;99.90
18160;DHT22;9205;52.032;4.314;2022-11-18T08:06:22;9.80;99.90
18160;DHT22;9205;52.032;4.314;2022-11-18T08:08:49;9.90;99.90
18160;DHT22;9205;52.032;4.314;2022-11-18T08:11:18;10.00;99.90
18160;DHT22;9205;52.032;4.314;2022-11-18T08:13:45;10.10;99.90
18160;DHT22;9205;52.032;4.314;2022-11-18T08:16:14;9.80;99.90
18160;DHT22;9205;52.032;4.314;2022-11-18T08:18:44;10.10;99.90
18160;DHT22;9205;52.032;4.314;2022-11-18T08:21:13;10.20;99.90
18160;DHT22;9205;52.032;4.314;2022-11-18T08:23:42;10.20;99.90
18160;DHT22;9205;52.032;4.314;2022-11-18T08:26:11;10.20;99.90
18160;DHT22;9205;52.032;4.314;2022-11-18T08:28:39;10.10;99.90
18160;DHT22;9205;52.032;4.314;2022-11-18T08:31:11;10.10;99.90
18160;DHT22;9205;52.032;4.314;2022-11-18T08:33:40;9.90;99.90
18160;DHT22;9205;52.032;4.314;2022-11-18T08:36:09;10.30;99.90
18160;DHT22;9205;52.032;4.314;2022-11-18T08:38:38;10.30;99.90
18160;DHT22;9205;52.032;4.314;2022-11-18T08:41:10;10.10;99.90
18160;DHT22;9205;52.032;4.314;2022-11-18T08:43:38;10.40;99.90
18160;DHT22;9205;52.032;4.314;2022-11-18T08:46:08;10.20;99.90
18160;DHT22;9205;52.032;4.314;2022-11-18T08:48:35;10.40;99.90
18160;DHT22;9205;52.032;4.314;2022-11-18T08:51:03;10.20;99.90
18160;DHT22;9205;52.032;4.314;2022-11-18T08:53:30;10.40;99.90
18160;DHT22;9205;52.032;4.314;2022-11-18T08:55:59;10.60;99.90
18160;DHT22;9205;52.032;4.314;2022-11-18T08:58:28;10.30;99.90
18160;DHT22;9205;52.032;4.314;2022-11-18T09:00:55;10.50;99.90
18160;DHT22;9205;52.032;4.314;2022-11-18T09:03:23;10.50;99.90
18160;DHT22;9205;52.032;4.314;2022-11-18T09:05:50;10.50;99.90
18160;DHT22;9205;52.032;4.314;2022-11-18T09:08:17;10.40;99.90
18160;DHT22;9205;52.032;4.314;2022-11-18T09:10:46;10.50;99.90
18160;DHT22;9205;52.032;4.314;2022-11-18T09:13:13;10.60;99.90
18160;DHT22;9205;52.032;4.314;2022-11-18T09:15:42;10.40;99.90
18160;DHT22;9205;52.032;4.314;2022-11-18T09:18:09;10.60;99.90
18160;DHT22;9205;52.032;4.314;2022-11-18T09:20:37;10.50;99.90
18160;DHT22;9205;52.032;4.314;2022-11-18T09:23:05;10.70;99.90
18160;DHT22;9205;52.032;4.314;2022-11-18T09:25:33;10.70;99.90
18160;DHT22;9205;52.032;4.314;2022-11-18T09:28:00;10.80;99.90
18160;DHT22;9205;52.032;4.314;2022-11-18T09:30:27;10.50;99.90
18160;DHT22;9205;52.032;4.314;2022-11-18T09:32:56;10.80;99.90
18160;DHT22;9205;52.032;4.314;2022-11-18T09:35:23;10.60;99.90
18160;DHT22;9205;52.032;4.314;2022-11-18T09:37:50;10.70;99.90
18160;DHT22;9205;52.032;4.314;2022-11-18T09:40:18;10.60;99.90
18160;DHT22;9205;52.032;4.314;2022-11-18T09:42:55;10.70;99.90
18160;DHT22;9205;52.032;4.314;2022-11-18T09:45:52;10.70;99.90
18160;DHT22;9205;52.032;4.314;2022-11-18T09:48:27;10.60;99.90
18160;DHT22;9205;52.032;4.314;2022-11-18T09:51:09;10.80;99.90
18160;DHT22;9205;52.032;4.314;2022-11-18T09:53:39;10.60;99.90
18160;DHT22;9205;52.032;4.314;2022-11-18T09:56:13;10.50;99.90
18160;DHT22;9205;52.032;4.314;2022-11-18T09:58:43;10.80;99.90
18160;DHT22;9205;52.032;4.314;2022-11-18T10:01:13;10.80;99.90
18160;DHT22;9205;52.032;4.314;2022-11-18T10:03:45;10.80;99.90
18160;DHT22;9205;52.032;4.314;2022-11-18T10:06:17;10.90;99.90
18160;DHT22;9205;52.032;4.314;2022-11-18T10:08:57;10.80;99.90
18160;DHT22;9205;52.032;4.314;2022-11-18T10:11:57;10.90;99.90
18160;DHT22;9205;52.032;4.314;2022-11-18T10:14:56;10.90;99.90
18160;DHT22;9205;52.032;4.314;2022-11-18T10:17:41;10.70;99.90
18160;DHT22;9205;52.032;4.314;2022-11-18T10:20:23;10.80;99.90
18160;DHT22;9205;52.032;4.314;2022-11-18T10:23:03;10.90;99.90
18160;DHT22;9205;52.032;4.314;2022-11-18T10:25:37;10.80;99.90
18160;DHT22;9205;52.032;4.314;2022-11-18T10:28:20;10.90;99.90
18160;DHT22;9205;52.032;4.314;2022-11-18T10:30:50;10.70;99.90
18160;DHT22;9205;52.032;4.314;2022-11-18T10:33:28;10.70;99.90
18160;DHT22;9205;52.032;4.314;2022-11-18T10:36:10;11.00;99.90
18160;DHT22;9205;52.032;4.314;2022-11-18T10:39:09;10.80;99.90
18160;DHT22;9205;52.032;4.314;2022-11-18T10:41:45;10.80;99.90
18160;DHT22;9205;52.032;4.314;2022-11-18T10:44:27;11.00;99.90
18160;DHT22;9205;52.032;4.314;2022-11-18T10:47:25;11.00;99.90
18160;DHT22;9205;52.032;4.314;2022-11-18T10:49:56;11.10;99.90
18160;DHT22;9205;52.032;4.314;2022-11-18T10:52:28;10.90;99.90
18160;DHT22;9205;52.032;4.314;2022-11-18T10:55:08;10.90;99.90
18160;DHT22;9205;52.032;4.314;2022-11-18T10:57:47;11.10;99.90
18160;DHT22;9205;52.032;4.314;2022-11-18T11:00:38;11.00;99.90
18160;DHT22;9205;52.032;4.314;2022-11-18T11:03:25;11.10;99.90
18160;DHT22;9205;52.032;4.314;2022-11-18T11:06:17;11.20;99.90
18160;DHT22;9205;52.032;4.314;2022-11-18T11:09:01;11.30;99.90
18160;DHT22;9205;52.032;4.314;2022-11-18T11:11:33;11.10;99.90
18160;DHT22;9205;52.032;4.314;2022-11-18T11:14:24;11.30;99.90
18160;DHT22;9205;52.032;4.314;2022-11-18T11:17:01;11.20;99.90
18160;DHT22;9205;52.032;4.314;2022-11-18T11:19:48;11.20;99.90
18160;DHT22;9205;52.032;4.314;2022-11-18T11:22:18;11.10;99.90
18160;DHT22;9205;52.032;4.314;2022-11-18T11:24:47;11.30;99.90
18160;DHT22;9205;52.032;4.314;2022-11-18T11:27:26;11.00;99.90
18160;DHT22;9205;52.032;4.314;2022-11-18T11:30:15;11.10;99.90
18160;DHT22;9205;52.032;4.314;2022-11-18T11:36:03;11.30;99.90
18160;DHT22;9205;52.032;4.314;2022-11-18T11:38:53;11.30;99.90
18160;DHT22;9205;52.032;4.314;2022-11-18T11:41:29;11.40;99.90
18160;DHT22;9205;52.032;4.314;2022-11-18T11:44:22;11.50;99.90
18160;DHT22;9205;52.032;4.314;2022-11-18T11:47:07;11.20;99.90
18160;DHT22;9205;52.032;4.314;2022-11-18T11:50:12;11.50;99.90
18160;DHT22;9205;52.032;4.314;2022-11-18T11:52:57;11.30;99.90
18160;DHT22;9205;52.032;4.314;2022-11-18T11:55:38;11.20;99.90
18160;DHT22;9205;52.032;4.314;2022-11-18T11:58:31;11.40;99.90
18160;DHT22;9205;52.032;4.314;2022-11-18T12:01:34;11.50;99.90
18160;DHT22;9205;52.032;4.314;2022-11-18T12:04:20;11.40;99.90
18160;DHT22;9205;52.032;4.314;2022-11-18T12:06:57;11.30;99.90
18160;DHT22;9205;52.032;4.314;2022-11-18T12:09:31;11.40;99.90
18160;DHT22;9205;52.032;4.314;2022-11-18T12:12:12;11.40;99.90
18160;DHT22;9205;52.032;4.314;2022-11-18T12:15:23;11.40;99.90
18160;DHT22;9205;52.032;4.314;2022-11-18T12:18:05;11.40;99.90
18160;DHT22;9205;52.032;4.314;2022-11-18T12:20:42;11.30;99.90
18160;DHT22;9205;52.032;4.314;2022-11-18T12:23:17;11.40;99.90
18160;DHT22;9205;52.032;4.314;2022-11-18T12:25:54;11.20;99.90
18160;DHT22;9205;52.032;4.314;2022-11-18T12:28:31;11.30;99.90
18160;DHT22;9205;52.032;4.314;2022-11-18T12:31:34;11.20;99.90
18160;DHT22;9205;52.032;4.314;2022-11-18T12:34:20;11.40;99.90
18160;DHT22;9205;52.032;4.314;2022-11-18T12:40:31;11.40;99.90
18160;DHT22;9205;52.032;4.314;2022-11-18T12:46:54;11.40;99.90
18160;DHT22;9205;52.032;4.314;2022-11-18T12:52:53;11.20;99.90
18160;DHT22;9205;52.032;4.314;2022-11-18T12:55:24;11.40;99.90
18160;DHT22;9205;52.032;4.314;2022-11-18T12:57:57;11.50;99.90
18160;DHT22;9205;52.032;4.314;2022-11-18T13:00:31;11.20;99.90
18160;DHT22;9205;52.032;4.314;2022-11-18T13:03:25;11.60;99.90
18160;DHT22;9205;52.032;4.314;2022-11-18T13:06:00;11.30;99.90
18160;DHT22;9205;52.032;4.314;2022-11-18T13:08:31;11.60;99.90
18160;DHT22;9205;52.032;4.314;2022-11-18T13:11:13;11.60;99.90
18160;DHT22;9205;52.032;4.314;2022-11-18T13:14:04;11.50;99.90
18160;DHT22;9205;52.032;4.314;2022-11-18T13:16:49;11.30;99.90
18160;DHT22;9205;52.032;4.314;2022-11-18T13:19:36;11.60;99.90
18160;DHT22;9205;52.032;4.314;2022-11-18T13:22:12;11.30;99.90
18160;DHT22;9205;52.032;4.314;2022-11-18T13:25:00;11.30;99.90
18160;DHT22;9205;52.032;4.314;2022-11-18T13:27:37;11.30;99.90
18160;DHT22;9205;52.032;4.314;2022-11-18T13:30:12;11.30;99.90
18160;DHT22;9205;52.032;4.314;2022-11-18T13:32:43;11.20;99.90
18160;DHT22;9205;52.032;4.314;2022-11-18T13:35:16;11.30;99.90
18160;DHT22;9205;52.032;4.314;2022-11-18T13:37:49;11.60;99.90
18160;DHT22;9205;52.032;4.314;2022-11-18T13:40:21;11.20;99.90
18160;DHT22;9205;52.032;4.314;2022-11-18T13:42:50;11.30;99.90
18160;DHT22;9205;52.032;4.314;2022-11-18T13:45:17;11.50;99.90
18160;DHT22;9205;52.032;4.314;2022-11-18T13:47:49;11.40;99.90
18160;DHT22;9205;52.032;4.314;2022-11-18T13:50:23;11.50;99.90
18160;DHT22;9205;52.032;4.314;2022-11-18T13:53:11;11.50;99.90
18160;DHT22;9205;52.032;4.314;2022-11-18T13:55:47;11.30;99.90
18160;DHT22;9205;52.032;4.314;2022-11-18T13:58:32;11.50;99.90
18160;DHT22;9205;52.032;4.314;2022-11-18T14:01:04;11.10;99.90
18160;DHT22;9205;52.032;4.314;2022-11-18T14:03:48;11.40;99.90
18160;DHT22;9205;52.032;4.314;2022-11-18T14:06:28;11.40;99.90
18160;DHT22;9205;52.032;4.314;2022-11-18T14:09:05;11.10;99.90
18160;DHT22;9205;52.032;4.314;2022-11-18T14:11:42;11.40;99.90
18160;DHT22;9205;52.032;4.314;2022-11-18T14:14:29;11.20;99.90
18160;DHT22;9205;52.032;4.314;2022-11-18T14:17:14;11.10;99.90
18160;DHT22;9205;52.032;4.314;2022-11-18T14:19:43;11.50;99.90
18160;DHT22;9205;52.032;4.314;2022-11-18T14:22:15;11.30;99.90
18160;DHT22;9205;52.032;4.314;2022-11-18T14:24:53;11.20;99.90
18160;DHT22;9205;52.032;4.314;2022-11-18T14:27:42;11.40;99.90
18160;DHT22;9205;52.032;4.314;2022-11-18T14:30:27;11.10;99.90
18160;DHT22;9205;52.032;4.314;2022-11-18T14:33:11;11.50;99.90
18160;DHT22;9205;52.032;4.314;2022-11-18T14:35:51;11.30;99.90
18160;DHT22;9205;52.032;4.314;2022-11-18T14:38:28;11.20;99.90
18160;DHT22;9205;52.032;4.314;2022-11-18T14:41:07;11.20;99.90
18160;DHT22;9205;52.032;4.314;2022-11-18T14:43:39;11.20;99.90
18160;DHT22;9205;52.032;4.314;2022-11-18T14:46:14;11.10;99.90
18160;DHT22;9205;52.032;4.314;2022-11-18T14:48:44;11.20;99.90
18160;DHT22;9205;52.032;4.314;2022-11-18T14:51:13;11.20;99.90
18160;DHT22;9205;52.032;4.314;2022-11-18T14:53:48;11.10;99.90
18160;DHT22;9205;52.032;4.314;2022-11-18T14:56:20;11.40;99.90
18160;DHT22;9205;52.032;4.314;2022-11-18T14:58:51;11.40;99.90
18160;DHT22;9205;52.032;4.314;2022-11-18T15:01:19;11.50;99.90
18160;DHT22;9205;52.032;4.314;2022-11-18T15:03:49;11.30;99.90
18160;DHT22;9205;52.032;4.314;2022-11-18T15:06:18;11.10;99.90
18160;DHT22;9205;52.032;4.314;2022-11-18T15:08:49;11.00;99.90
18160;DHT22;9205;52.032;4.314;2022-11-18T15:11:18;11.10;99.90
18160;DHT22;9205;52.032;4.314;2022-11-18T15:13:46;11.30;99.90
18160;DHT22;9205;52.032;4.314;2022-11-18T15:16:16;11.20;99.90
18160;DHT22;9205;52.032;4.314;2022-11-18T15:18:46;11.40;99.90
18160;DHT22;9205;52.032;4.314;2022-11-18T15:21:15;11.40;99.90
18160;DHT22;9205;52.032;4.314;2022-11-18T15:23:48;11.20;99.90
18160;DHT22;9205;52.032;4.314;2022-11-18T15:26:18;11.10;99.90
18160;DHT22;9205;52.032;4.314;2022-11-18T15:28:48;11.20;99.90
18160;DHT22;9205;52.032;4.314;2022-11-18T15:31:19;11.10;99.90
18160;DHT22;9205;52.032;4.314;2022-11-18T15:33:48;11.30;99.90
18160;DHT22;9205;52.032;4.314;2022-11-18T15:36:19;11.40;99.90
18160;DHT22;9205;52.032;4.314;2022-11-18T15:38:53;11.30;99.90
18160;DHT22;9205;52.032;4.314;2022-11-18T15:41:41;10.90;99.90
18160;DHT22;9205;52.032;4.314;2022-11-18T15:44:15;11.30;99.90
18160;DHT22;9205;52.032;4.314;2022-11-18T15:46:50;11.10;99.90
18160;DHT22;9205;52.032;4.314;2022-11-18T15:49:23;10.80;99.90
18160;DHT22;9205;52.032;4.314;2022-11-18T15:51:51;11.00;99.90
18160;DHT22;9205;52.032;4.314;2022-11-18T15:54:20;10.90;99.90
18160;DHT22;9205;52.032;4.314;2022-11-18T15:56:53;11.00;99.90
18160;DHT22;9205;52.032;4.314;2022-11-18T15:59:20;11.20;99.90
18160;DHT22;9205;52.032;4.314;2022-11-18T16:01:48;11.40;99.90
18160;DHT22;9205;52.032;4.314;2022-11-18T16:04:16;11.00;99.90
18160;DHT22;9205;52.032;4.314;2022-11-18T16:06:44;11.30;99.90
18160;DHT22;9205;52.032;4.314;2022-11-18T16:09:13;11.30;99.90
18160;DHT22;9205;52.032;4.314;2022-11-18T16:11:52;11.40;99.90
18160;DHT22;9205;52.032;4.314;2022-11-18T16:14:39;11.40;99.90
18160;DHT22;9205;52.032;4.314;2022-11-18T16:17:09;10.90;99.90
18160;DHT22;9205;52.032;4.314;2022-11-18T16:19:40;11.40;99.90
18160;DHT22;9205;52.032;4.314;2022-11-18T16:22:19;11.00;99.90
18160;DHT22;9205;52.032;4.314;2022-11-18T16:24:59;11.40;99.90
18160;DHT22;9205;52.032;4.314;2022-11-18T16:27:30;11.20;99.90
18160;DHT22;9205;52.032;4.314;2022-11-18T16:29:58;11.00;99.90
18160;DHT22;9205;52.032;4.314;2022-11-18T16:32:34;11.50;99.90
18160;DHT22;9205;52.032;4.314;2022-11-18T16:35:11;11.50;99.90
18160;DHT22;9205;52.032;4.314;2022-11-18T16:37:51;11.50;99.90
18160;DHT22;9205;52.032;4.314;2022-11-18T16:40:22;11.60;99.90
18160;DHT22;9205;52.032;4.314;2022-11-18T16:42:51;11.50;99.90
18160;DHT22;9205;52.032;4.314;2022-11-18T16:45:30;11.20;99.90
18160;DHT22;9205;52.032;4.314;2022-11-18T16:48:08;11.80;99.90